Time;durP1;ratioP1;P1;durP2;ratioP2;P2;SDS_P1;SDS_P2;PMS_P1;PMS_P2;Temp;Humidity;BMP_temperature;BMP_pressure;BME280_temperature;BME280_humidity;BME280_pressure;Samples;Min_cycle;Max_cycle;Signal;HPM_P1;HPM_P2
2022/02/09 00:02:41;;;;;;;17.77;5.95;;;6.40;99.90;;;;;;5034816;28;20147;-68
2022/02/09 00:08:01;;;;;;;9.98;5.07;;;6.40;99.90;;;;;;5030852;28;20100;-68
2022/02/09 00:10:31;;;;;;;11.90;5.22;;;6.40;99.90;;;;;;5034942;28;20061;-68
2022/02/09 00:13:15;;;;;;;9.32;4.53;;;6.30;99.90;;;;;;5034478;28;20062;-68
2022/02/09 00:15:50;;;;;;;11.52;4.60;;;6.40;99.90;;;;;;5034625;28;20060;-67
2022/02/09 00:18:28;;;;;;;10.55;3.97;;;6.40;99.90;;;;;;5034944;28;20057;-68
2022/02/09 00:21:31;;;;;;;10.93;4.85;;;6.40;99.90;;;;;;5034751;28;20053;-67
2022/02/09 00:24:32;;;;;;;11.35;3.75;;;6.50;99.90;;;;;;5034562;28;20045;-67
2022/02/09 00:35:41;;;;;;;8.20;3.25;;;6.80;99.90;;;;;;5033629;28;20045;-67
2022/02/09 00:41:25;;;;;;;8.10;3.33;;;6.80;99.90;;;;;;5034504;28;20052;-67
2022/02/09 00:44:19;;;;;;;6.88;3.40;;;6.70;99.90;;;;;;5033814;28;20144;-67
2022/02/09 01:39:12;;;;;;;6.68;2.78;;;6.70;99.90;;;;;;5032971;28;20179;-67
2022/02/09 01:55:41;;;;;;;7.55;3.28;;;6.70;99.90;;;;;;5032607;28;20107;-67
2022/02/09 01:58:10;;;;;;;7.88;3.28;;;6.70;99.90;;;;;;5032824;28;20064;-68
2022/02/09 02:00:39;;;;;;;9.10;3.65;;;6.60;99.90;;;;;;5032443;28;20049;-67
2022/02/09 02:03:06;;;;;;;10.23;3.53;;;6.60;99.90;;;;;;5032953;28;20055;-68
2022/02/09 02:05:35;;;;;;;5.63;2.80;;;6.60;99.90;;;;;;5032287;28;20470;-69
2022/02/09 02:08:03;;;;;;;8.20;3.75;;;6.50;99.90;;;;;;5032569;28;20064;-68
2022/02/09 02:10:39;;;;;;;7.43;3.10;;;6.50;99.90;;;;;;5032668;28;20413;-68
2022/02/09 02:13:20;;;;;;;8.38;3.20;;;6.50;99.90;;;;;;5032496;28;20080;-68
2022/02/09 02:16:14;;;;;;;8.02;3.42;;;6.50;99.90;;;;;;5032166;28;20053;-69
2022/02/09 02:18:43;;;;;;;4.82;2.50;;;6.60;99.90;;;;;;5032331;28;20490;-68
2022/02/09 02:21:22;;;;;;;7.28;2.53;;;6.70;99.90;;;;;;5032616;28;20731;-68
2022/02/09 02:26:44;;;;;;;7.80;2.97;;;6.70;99.90;;;;;;5028121;28;20057;-69
2022/02/09 02:29:39;;;;;;;7.90;2.65;;;6.60;99.90;;;;;;5031037;28;20127;-68
2022/02/09 02:35:36;;;;;;;5.47;2.88;;;6.70;99.90;;;;;;5024042;28;20041;-67
2022/02/09 02:57:52;;;;;;;7.18;2.78;;;6.80;99.90;;;;;;5031938;28;20072;-67
2022/02/09 03:08:50;;;;;;;6.10;3.38;;;6.70;99.90;;;;;;5032119;28;20056;-67
2022/02/09 03:11:34;;;;;;;7.07;2.95;;;6.70;99.90;;;;;;5033282;28;20046;-67
2022/02/09 03:14:08;;;;;;;7.03;3.38;;;6.70;99.90;;;;;;5035678;28;20476;-68
2022/02/09 03:16:39;;;;;;;8.80;3.50;;;6.70;99.90;;;;;;5035457;28;20054;-67
2022/02/09 03:22:17;;;;;;;8.43;3.40;;;6.70;99.90;;;;;;4993808;28;20042;-67
2022/02/09 03:25:05;;;;;;;9.20;3.70;;;6.70;99.90;;;;;;5029185;28;20060;-67
2022/02/09 03:27:48;;;;;;;8.85;3.83;;;6.70;99.90;;;;;;5035501;28;20160;-67
2022/02/09 03:44:14;;;;;;;8.30;3.83;;;6.70;99.90;;;;;;5035257;28;20048;-67
2022/02/09 03:49:38;;;;;;;8.77;4.00;;;6.60;99.90;;;;;;5027847;28;20057;-67
2022/02/09 03:52:32;;;;;;;7.70;3.72;;;6.70;99.90;;;;;;5035440;28;20068;-67
2022/02/09 03:54:58;;;;;;;7.57;3.58;;;6.70;99.90;;;;;;5034587;28;20136;-67
2022/02/09 03:57:28;;;;;;;10.07;3.83;;;6.70;99.90;;;;;;5034768;28;20058;-67
2022/02/09 03:59:56;;;;;;;9.27;3.90;;;6.70;99.90;;;;;;5035155;28;20053;-67
2022/02/09 04:02:26;;;;;;;9.00;4.15;;;6.70;99.90;;;;;;5035214;28;20068;-67
2022/02/09 04:04:56;;;;;;;10.80;4.57;;;6.70;99.90;;;;;;5034285;28;20049;-67
2022/02/09 04:07:23;;;;;;;9.88;4.25;;;6.70;99.90;;;;;;5034558;28;20398;-67
2022/02/09 04:09:54;;;;;;;9.85;4.40;;;6.70;99.90;;;;;;5034632;28;20510;-67
2022/02/09 04:12:32;;;;;;;9.68;4.10;;;6.70;99.90;;;;;;5034840;28;20072;-67
2022/02/09 04:15:13;;;;;;;9.48;4.13;;;6.70;99.90;;;;;;5034464;28;20088;-67
2022/02/09 04:17:49;;;;;;;11.15;3.80;;;6.70;99.90;;;;;;5034730;28;20093;-68
2022/02/09 04:20:34;;;;;;;8.50;4.20;;;6.70;99.90;;;;;;5034714;28;20111;-67
2022/02/09 04:36:52;;;;;;;11.07;4.95;;;6.60;99.90;;;;;;5034149;28;20056;-67
2022/02/09 04:39:25;;;;;;;12.07;4.85;;;6.60;99.90;;;;;;5034476;28;20057;-67
2022/02/09 04:42:15;;;;;;;13.30;5.68;;;6.60;99.90;;;;;;5034500;28;20057;-67
2022/02/09 04:45:13;;;;;;;11.77;4.93;;;6.60;99.90;;;;;;5034079;28;20053;-67
2022/02/09 04:47:51;;;;;;;9.32;4.38;;;6.60;99.90;;;;;;5034007;28;20515;-67
2022/02/09 04:50:24;;;;;;;10.70;4.57;;;6.60;99.90;;;;;;5034177;28;20060;-67
2022/02/09 04:58:37;;;;;;;8.82;4.60;;;6.60;99.90;;;;;;5023595;28;20041;-68
2022/02/09 05:01:12;;;;;;;9.27;4.53;;;6.60;99.90;;;;;;5034265;28;20107;-68
2022/02/09 05:04:00;;;;;;;9.68;4.78;;;6.60;99.90;;;;;;5034456;28;20139;-68
2022/02/09 05:23:20;;;;;;;10.45;4.80;;;6.60;99.90;;;;;;5013186;28;20045;-68
2022/02/09 05:25:50;;;;;;;14.18;5.13;;;6.60;99.90;;;;;;5033083;28;20505;-68
2022/02/09 05:28:18;;;;;;;10.93;5.38;;;6.60;99.90;;;;;;5033715;28;20053;-68
2022/02/09 05:30:48;;;;;;;11.45;5.28;;;6.60;99.90;;;;;;5033466;28;20115;-68
2022/02/09 05:33:16;;;;;;;9.57;4.60;;;6.60;99.90;;;;;;5032997;28;20494;-68
2022/02/09 05:35:43;;;;;;;9.85;4.82;;;6.60;99.90;;;;;;5032504;28;20081;-67
2022/02/09 05:38:12;;;;;;;10.13;5.30;;;6.60;99.90;;;;;;5032884;28;20063;-67
2022/02/09 05:40:41;;;;;;;11.90;4.63;;;6.60;99.90;;;;;;5033203;28;20499;-68
2022/02/09 05:43:09;;;;;;;10.27;4.57;;;6.60;99.90;;;;;;5033053;28;20141;-67
2022/02/09 05:45:50;;;;;;;13.98;5.63;;;6.60;99.90;;;;;;5032621;28;20140;-67
2022/02/09 05:49:06;;;;;;;10.35;4.60;;;6.60;99.90;;;;;;5033108;28;20065;-67
2022/02/09 05:51:23;;;;;;;12.30;5.32;;;6.60;99.90;;;;;;5032750;28;20494;-67
2022/02/09 05:54:04;;;;;;;12.27;5.25;;;6.60;99.90;;;;;;5032973;28;20057;-67
2022/02/09 05:56:38;;;;;;;9.98;4.90;;;6.60;99.90;;;;;;5032627;28;20136;-67
2022/02/09 05:59:16;;;;;;;9.80;4.38;;;6.60;99.90;;;;;;5032707;28;20061;-67
2022/02/09 06:01:44;;;;;;;9.02;4.30;;;6.60;99.90;;;;;;5032775;28;20053;-67
2022/02/09 06:04:11;;;;;;;8.48;4.47;;;6.60;99.90;;;;;;5032445;28;20069;-67
2022/02/09 06:06:38;;;;;;;8.15;4.07;;;6.60;99.90;;;;;;5032227;28;20071;-67
2022/02/09 06:09:08;;;;;;;8.32;4.70;;;6.60;99.90;;;;;;5032231;28;20092;-67
2022/02/09 06:11:42;;;;;;;11.20;4.55;;;6.60;99.90;;;;;;5032464;28;20053;-69
2022/02/09 06:14:24;;;;;;;9.05;4.35;;;6.60;99.90;;;;;;5032156;28;20061;-67
2022/02/09 06:19:43;;;;;;;9.95;4.10;;;6.60;99.90;;;;;;5032318;28;20053;-67
2022/02/09 06:22:10;;;;;;;8.32;4.63;;;6.60;99.90;;;;;;5032385;28;20131;-67
2022/02/09 06:24:41;;;;;;;10.90;4.40;;;6.60;99.90;;;;;;5032420;28;20057;-68
2022/02/09 06:27:09;;;;;;;8.77;4.13;;;6.60;99.90;;;;;;5031726;28;20045;-68
2022/02/09 06:29:36;;;;;;;7.88;4.05;;;6.60;99.90;;;;;;5031914;28;20053;-68
2022/02/09 06:32:08;;;;;;;7.25;3.83;;;6.60;99.90;;;;;;5032350;28;20087;-67
2022/02/09 06:34:36;;;;;;;9.70;4.60;;;6.60;99.90;;;;;;5032012;28;20080;-67
2022/02/09 06:37:12;;;;;;;8.38;4.63;;;6.60;99.90;;;;;;5031655;28;20105;-68
2022/02/09 06:39:44;;;;;;;10.65;4.95;;;6.60;99.90;;;;;;5032231;28;20053;-68
2022/02/09 06:42:11;;;;;;;12.23;4.88;;;6.60;99.90;;;;;;5031965;28;20092;-68
2022/02/09 06:44:38;;;;;;;9.57;5.28;;;6.60;99.90;;;;;;5031592;28;20420;-67
2022/02/09 06:47:05;;;;;;;10.13;5.13;;;6.60;99.90;;;;;;5030542;28;20580;-68
2022/02/09 06:49:33;;;;;;;10.85;5.28;;;6.60;99.90;;;;;;5031734;28;20540;-68
2022/02/09 06:52:00;;;;;;;10.80;5.45;;;6.60;99.90;;;;;;5031698;28;20651;-68
2022/02/09 06:54:31;;;;;;;9.63;5.45;;;6.60;99.90;;;;;;5031530;28;20419;-68
2022/02/09 06:57:07;;;;;;;13.02;5.30;;;6.60;99.90;;;;;;5031670;28;20063;-68
2022/02/09 06:59:38;;;;;;;9.38;4.90;;;6.70;99.90;;;;;;5031769;28;20053;-67
2022/02/09 07:02:06;;;;;;;10.13;5.80;;;6.60;99.90;;;;;;5031654;28;20064;-67
2022/02/09 07:04:35;;;;;;;10.43;5.95;;;6.70;99.90;;;;;;5031824;28;20089;-68
2022/02/09 07:07:02;;;;;;;10.52;5.80;;;6.60;99.90;;;;;;5031394;28;20049;-67
2022/02/09 07:09:29;;;;;;;13.23;6.13;;;6.60;99.90;;;;;;5032197;28;20137;-68
2022/02/09 07:11:59;;;;;;;9.68;5.28;;;6.70;99.90;;;;;;5031528;28;20131;-68
2022/02/09 07:14:28;;;;;;;11.05;5.70;;;6.70;99.90;;;;;;5031751;28;20132;-68
2022/02/09 07:16:56;;;;;;;11.10;5.32;;;6.70;99.90;;;;;;5031652;28;20085;-67
2022/02/09 07:19:23;;;;;;;9.68;5.25;;;6.70;99.90;;;;;;5031708;28;20057;-68
2022/02/09 07:21:52;;;;;;;10.82;5.57;;;6.70;99.90;;;;;;5031638;28;20076;-68
2022/02/09 07:24:20;;;;;;;10.70;5.38;;;6.70;99.90;;;;;;5031646;28;20104;-68
2022/02/09 07:27:22;;;;;;;12.07;5.15;;;6.70;99.90;;;;;;5031120;28;20052;-68
2022/02/09 07:29:40;;;;;;;8.50;4.68;;;6.70;99.90;;;;;;5031326;28;20060;-67
2022/02/09 07:32:08;;;;;;;10.88;5.32;;;6.80;99.90;;;;;;5031578;28;20081;-67
2022/02/09 07:34:34;;;;;;;9.95;4.80;;;6.80;99.90;;;;;;5031314;28;20087;-70
2022/02/09 07:37:01;;;;;;;11.60;5.40;;;6.80;99.90;;;;;;5031198;28;20137;-68
2022/02/09 07:39:28;;;;;;;9.77;4.85;;;6.80;99.90;;;;;;5031674;28;20458;-68
2022/02/09 07:41:56;;;;;;;9.43;4.95;;;6.80;99.90;;;;;;5031088;28;20132;-68
2022/02/09 07:44:45;;;;;;;10.15;4.68;;;6.90;99.90;;;;;;5031317;28;20142;-68
2022/02/09 07:47:35;;;;;;;8.75;4.30;;;6.90;99.90;;;;;;5031415;28;20056;-68
2022/02/09 07:50:29;;;;;;;11.50;4.60;;;6.90;99.90;;;;;;5031402;28;20061;-67
2022/02/09 07:53:06;;;;;;;8.60;4.63;;;6.90;99.90;;;;;;5031616;28;20111;-68
2022/02/09 07:55:33;;;;;;;8.20;4.30;;;6.90;99.90;;;;;;5030798;28;20510;-68
2022/02/09 07:58:00;;;;;;;8.68;4.47;;;6.80;99.90;;;;;;5033563;28;20140;-68
2022/02/09 08:00:27;;;;;;;9.00;4.63;;;6.80;99.90;;;;;;5035039;28;20482;-68
2022/02/09 08:02:57;;;;;;;8.57;4.80;;;6.80;99.90;;;;;;5034605;28;20601;-68
2022/02/09 08:05:25;;;;;;;16.88;5.45;;;6.90;99.90;;;;;;5034449;28;20140;-68
2022/02/09 08:07:53;;;;;;;9.25;4.68;;;6.90;99.90;;;;;;5034680;28;20053;-68
2022/02/09 08:10:25;;;;;;;9.77;4.63;;;6.90;99.90;;;;;;5034881;28;20053;-67
2022/02/09 08:20:26;;;;;;;11.10;4.72;;;6.90;99.90;;;;;;5034745;28;20073;-67
2022/02/09 08:24:56;;;;;;;10.38;5.15;;;7.00;99.90;;;;;;5034311;28;20495;-67
2022/02/09 08:27:19;;;;;;;9.75;4.78;;;7.00;99.90;;;;;;5033680;28;20052;-67
2022/02/09 08:29:59;;;;;;;10.63;5.00;;;7.00;99.90;;;;;;5034598;28;20135;-67
2022/02/09 08:32:37;;;;;;;8.02;4.47;;;7.00;99.90;;;;;;5034438;28;20100;-67
2022/02/09 08:35:07;;;;;;;8.70;4.88;;;7.00;99.90;;;;;;5033977;28;20060;-67
2022/02/09 08:37:34;;;;;;;8.98;4.72;;;7.00;99.90;;;;;;5034142;28;20060;-67
2022/02/09 08:40:02;;;;;;;8.63;4.63;;;7.00;99.90;;;;;;5034291;28;20084;-67
2022/02/09 08:42:29;;;;;;;10.57;5.13;;;7.10;99.90;;;;;;5034087;28;20088;-67
2022/02/09 08:44:56;;;;;;;9.43;4.50;;;7.10;99.90;;;;;;5033748;28;20136;-66
2022/02/09 08:47:23;;;;;;;10.00;5.68;;;7.10;99.90;;;;;;5033956;28;20049;-67
2022/02/09 08:49:50;;;;;;;8.30;4.57;;;7.20;99.90;;;;;;5034214;28;20569;-67
2022/02/09 08:52:19;;;;;;;8.95;4.55;;;7.20;99.90;;;;;;5033808;28;20569;-67
2022/02/09 08:54:50;;;;;;;8.73;4.20;;;7.20;99.90;;;;;;5033359;28;20107;-67
2022/02/09 08:57:17;;;;;;;8.80;4.93;;;7.30;99.90;;;;;;5033888;28;20096;-67
2022/02/09 08:59:43;;;;;;;8.48;4.53;;;7.40;99.90;;;;;;5033731;28;20513;-67
2022/02/09 09:02:12;;;;;;;7.80;4.28;;;7.40;99.90;;;;;;5033741;28;20049;-67
2022/02/09 09:04:45;;;;;;;8.05;4.07;;;7.50;99.90;;;;;;5033649;28;20061;-67
2022/02/09 09:07:21;;;;;;;8.23;3.92;;;7.50;99.90;;;;;;5033679;28;20053;-67
2022/02/09 09:09:59;;;;;;;7.47;3.78;;;7.60;99.90;;;;;;5033103;28;20092;-67
2022/02/09 10:02:49;;;;;;;6.85;2.50;;;8.70;99.90;;;;;;5032511;28;20136;-67
2022/02/09 10:31:06;;;;;;;5.28;2.72;;;8.90;99.90;;;;;;5031995;28;20075;-67
2022/02/09 10:33:36;;;;;;;6.03;2.50;;;8.90;99.90;;;;;;5032338;28;20072;-67
2022/02/09 10:36:12;;;;;;;7.07;2.30;;;9.00;99.90;;;;;;5031765;28;20502;-67
2022/02/09 10:38:42;;;;;;;4.95;2.17;;;8.90;99.90;;;;;;5032305;28;20053;-67
2022/02/09 10:41:12;;;;;;;3.72;2.00;;;8.90;99.90;;;;;;5031800;28;20059;-67
2022/02/09 10:43:41;;;;;;;3.40;1.85;;;8.90;99.90;;;;;;5031799;28;20053;-67
2022/02/09 10:46:13;;;;;;;3.58;1.70;;;9.10;99.90;;;;;;5031559;28;20065;-67
2022/02/09 10:48:49;;;;;;;7.03;2.30;;;9.10;99.90;;;;;;5031708;28;20589;-67
2022/02/09 10:51:25;;;;;;;4.07;1.90;;;9.20;99.90;;;;;;5031675;28;20064;-67
2022/02/09 10:54:10;;;;;;;3.90;2.13;;;9.10;99.90;;;;;;5032043;28;20156;-67
2022/02/09 10:56:39;;;;;;;5.25;2.35;;;9.10;99.90;;;;;;5031418;28;20088;-67
2022/02/09 10:59:08;;;;;;;4.07;2.03;;;9.20;99.90;;;;;;5031908;28;20454;-67
2022/02/09 11:01:36;;;;;;;5.00;2.42;;;9.30;99.90;;;;;;5031872;28;20520;-67
2022/02/09 11:04:06;;;;;;;3.70;1.80;;;9.20;99.90;;;;;;5031971;28;20156;-67
2022/02/09 11:06:34;;;;;;;5.20;2.13;;;9.30;99.90;;;;;;5031170;28;20100;-67
2022/02/09 11:09:03;;;;;;;4.93;2.05;;;9.10;99.90;;;;;;5031715;28;20081;-67
2022/02/09 11:11:31;;;;;;;3.63;1.90;;;9.20;99.90;;;;;;5031533;28;20152;-67
2022/02/09 11:13:58;;;;;;;3.67;2.03;;;9.20;99.90;;;;;;5031339;28;20049;-67
2022/02/09 11:16:27;;;;;;;4.85;1.88;;;9.20;99.90;;;;;;5031440;28;20081;-67
2022/02/09 11:18:56;;;;;;;5.57;2.15;;;9.30;99.90;;;;;;5031894;28;20132;-67
2022/02/09 11:21:31;;;;;;;5.05;2.28;;;9.40;99.90;;;;;;5031552;28;20532;-67
2022/02/09 11:24:05;;;;;;;5.00;2.22;;;9.20;99.90;;;;;;5031580;28;20417;-67
2022/02/09 11:26:41;;;;;;;5.95;1.85;;;9.20;99.90;;;;;;5031469;28;20053;-67
2022/02/09 11:29:42;;;;;;;4.85;2.00;;;9.30;99.90;;;;;;5031469;28;20502;-67
2022/02/09 11:32:18;;;;;;;6.03;2.10;;;9.30;99.90;;;;;;5032813;28;20148;-66
2022/02/09 11:35:31;;;;;;;4.95;2.05;;;9.30;99.90;;;;;;5048795;28;20064;-67
2022/02/09 11:38:19;;;;;;;4.70;2.00;;;9.50;99.90;;;;;;5053195;28;20053;-67
2022/02/09 11:41:05;;;;;;;6.50;2.67;;;9.50;99.90;;;;;;5055012;28;20516;-67
2022/02/09 11:43:51;;;;;;;5.30;2.50;;;9.30;99.90;;;;;;5054840;28;20053;-68
2022/02/09 11:50:06;;;;;;;5.65;2.03;;;9.70;99.90;;;;;;4993197;28;20043;-68
2022/02/09 11:54:37;;;;;;;5.88;2.28;;;9.70;99.90;;;;;;5052165;28;20140;-68
2022/02/09 12:10:26;;;;;;;5.78;3.22;;;9.50;99.90;;;;;;5054529;28;20138;-69
2022/02/09 12:13:06;;;;;;;9.60;3.47;;;9.40;99.90;;;;;;5054261;28;20370;-68
2022/02/09 12:16:02;;;;;;;8.75;3.10;;;9.50;99.90;;;;;;5054376;28;20131;-67
2022/02/09 12:18:32;;;;;;;5.93;2.55;;;9.30;99.90;;;;;;5054643;28;20053;-68
2022/02/09 12:21:03;;;;;;;5.65;2.60;;;9.40;99.90;;;;;;5054545;28;20053;-67
2022/02/09 12:23:35;;;;;;;7.03;2.95;;;9.40;99.90;;;;;;5054596;28;20057;-68
2022/02/09 12:26:10;;;;;;;6.45;2.63;;;9.30;99.90;;;;;;5054373;28;20140;-68
2022/02/09 12:28:40;;;;;;;7.93;2.30;;;9.50;99.90;;;;;;5054106;28;20085;-68
2022/02/09 12:31:09;;;;;;;5.13;2.47;;;9.70;99.90;;;;;;5054053;28;20548;-68
2022/02/09 12:33:41;;;;;;;4.88;2.30;;;9.70;99.90;;;;;;5054003;28;20067;-68
2022/02/09 12:36:13;;;;;;;4.95;2.08;;;9.50;99.90;;;;;;5053849;28;20053;-68
2022/02/09 12:38:41;;;;;;;4.65;2.10;;;9.60;99.90;;;;;;5053740;28;20136;-68
2022/02/09 12:41:10;;;;;;;4.10;2.05;;;9.80;99.90;;;;;;5053909;28;20135;-68
2022/02/09 12:43:46;;;;;;;4.65;2.20;;;9.80;99.90;;;;;;5052710;28;20394;-68
2022/02/09 12:46:13;;;;;;;7.00;2.22;;;9.70;99.90;;;;;;5053669;28;20139;-68
2022/02/09 12:48:40;;;;;;;3.78;2.10;;;9.70;99.90;;;;;;5053948;28;20060;-68
2022/02/09 12:51:08;;;;;;;6.38;2.30;;;9.70;99.90;;;;;;5053622;28;20092;-68
2022/02/09 12:53:37;;;;;;;5.72;2.15;;;9.70;99.90;;;;;;5053539;28;20144;-68
2022/02/09 12:56:17;;;;;;;5.93;2.17;;;9.80;99.90;;;;;;5053546;28;20061;-68
2022/02/09 12:58:55;;;;;;;4.15;2.22;;;9.70;99.90;;;;;;5053678;28;20056;-68
2022/02/09 13:01:22;;;;;;;4.32;2.30;;;9.70;99.90;;;;;;5053641;28;20460;-68
2022/02/09 13:03:49;;;;;;;4.80;2.10;;;9.70;99.90;;;;;;5053403;28;20140;-68
2022/02/09 13:06:16;;;;;;;5.38;1.92;;;9.70;99.90;;;;;;5053398;28;20049;-68
2022/02/09 13:08:50;;;;;;;4.38;2.10;;;9.60;99.90;;;;;;5053399;28;20424;-68
2022/02/09 13:11:20;;;;;;;8.13;2.28;;;10.00;99.90;;;;;;5053362;28;20484;-68
2022/02/09 13:13:52;;;;;;;7.43;2.10;;;10.00;99.90;;;;;;5053429;28;20087;-67
2022/02/09 13:16:36;;;;;;;4.85;2.08;;;10.10;99.90;;;;;;5053373;28;20052;-68
2022/02/09 13:19:19;;;;;;;5.18;2.30;;;10.60;99.90;;;;;;5053290;28;20060;-68
2022/02/09 14:12:47;;;;;;;6.68;2.25;;;11.30;99.90;;;;;;5052041;28;20448;-68
2022/02/09 14:18:20;;;;;;;3.72;1.67;;;12.60;99.90;;;;;;5052178;28;20045;-67
2022/02/09 14:51:35;;;;;;;3.75;1.83;;;11.90;99.90;;;;;;5018386;28;20425;-67
2022/02/09 14:54:13;;;;;;;2.72;1.55;;;12.30;99.90;;;;;;5051676;28;20049;-67
2022/02/09 14:56:53;;;;;;;4.32;1.77;;;12.50;99.90;;;;;;5051561;28;20144;-67
2022/02/09 14:59:32;;;;;;;3.72;1.40;;;12.30;99.90;;;;;;5051506;28;20501;-67
2022/02/09 15:02:04;;;;;;;3.85;1.83;;;12.40;99.90;;;;;;5051376;28;20057;-67
2022/02/09 15:04:39;;;;;;;3.55;1.75;;;12.00;99.90;;;;;;5051447;28;20055;-67
2022/02/09 15:07:26;;;;;;;4.38;1.80;;;11.30;99.90;;;;;;5052617;28;20143;-67
2022/02/09 15:10:00;;;;;;;4.75;1.63;;;11.10;99.90;;;;;;5055916;28;20087;-67
2022/02/09 15:12:32;;;;;;;3.22;1.65;;;11.30;99.90;;;;;;5055826;28;20057;-67
2022/02/09 15:15:20;;;;;;;4.00;1.70;;;11.30;99.90;;;;;;5055653;28;20418;-67
2022/02/09 15:18:14;;;;;;;3.35;1.70;;;11.40;99.90;;;;;;5055653;28;20386;-67
2022/02/09 15:20:45;;;;;;;4.72;2.10;;;11.30;99.90;;;;;;5055327;28;20060;-67
2022/02/09 15:23:12;;;;;;;5.18;2.30;;;11.40;99.90;;;;;;5055555;28;20060;-66
2022/02/09 15:25:41;;;;;;;4.88;2.03;;;11.40;99.90;;;;;;5055433;28;20460;-67
2022/02/09 15:28:09;;;;;;;6.40;2.00;;;11.40;99.90;;;;;;5055285;28;20060;-67
2022/02/09 15:30:45;;;;;;;4.70;1.63;;;11.50;99.90;;;;;;5055685;28;20056;-67
2022/02/09 15:33:13;;;;;;;4.68;2.03;;;11.40;99.90;;;;;;5055729;28;20056;-67
2022/02/09 15:35:42;;;;;;;6.40;1.90;;;11.40;99.90;;;;;;5055454;28;20057;-67
2022/02/09 15:38:13;;;;;;;5.53;1.80;;;11.30;99.90;;;;;;5055150;28;20515;-67
2022/02/09 15:40:51;;;;;;;4.55;1.98;;;11.20;99.90;;;;;;5055533;28;20067;-67
2022/02/09 15:43:41;;;;;;;4.80;2.08;;;11.10;99.90;;;;;;5055642;28;20064;-67
2022/02/09 15:57:29;;;;;;;4.05;2.05;;;10.70;99.90;;;;;;5054968;28;20068;-67
2022/02/09 16:05:44;;;;;;;10.73;4.53;;;10.20;99.90;;;;;;5054869;28;20464;-67
2022/02/09 16:11:20;;;;;;;6.78;2.88;;;9.80;99.90;;;;;;5030579;28;20049;-67
2022/02/09 16:16:58;;;;;;;5.95;3.00;;;9.40;99.90;;;;;;5012351;28;20055;-66
2022/02/09 16:22:14;;;;;;;8.57;3.08;;;9.10;99.90;;;;;;5048313;28;20162;-67
2022/02/09 16:25:10;;;;;;;7.28;3.72;;;8.90;99.90;;;;;;5055406;28;20099;-67
2022/02/09 16:33:18;;;;;;;11.70;4.65;;;8.60;99.90;;;;;;5014223;28;20455;-67
2022/02/09 16:38:56;;;;;;;9.02;4.10;;;8.10;99.90;;;;;;5020049;28;20416;-67
2022/02/09 16:44:22;;;;;;;9.25;4.95;;;7.80;99.90;;;;;;5054264;28;20051;-67
2022/02/09 16:46:56;;;;;;;16.50;5.22;;;7.60;99.90;;;;;;5054099;28;20048;-67
2022/02/09 16:49:32;;;;;;;11.25;5.28;;;7.50;99.90;;;;;;5054735;28;20084;-67
2022/02/09 16:52:03;;;;;;;12.45;5.65;;;7.50;99.90;;;;;;5054758;28;20056;-67
2022/02/09 16:54:39;;;;;;;11.77;6.18;;;7.40;99.90;;;;;;5054237;28;20084;-67
2022/02/09 17:08:22;;;;;;;13.07;5.85;;;7.30;99.90;;;;;;5054476;28;20092;-67
2022/02/09 17:08:41;;;;;;;20.30;7.25;;;6.90;99.90;;;;;;5028097;28;20049;-67
2022/02/09 17:15:25;;;;;;;16.17;7.25;;;6.90;99.90;;;;;;5054243;28;20056;-67
2022/02/09 17:19:31;;;;;;;17.80;6.47;;;6.60;99.90;;;;;;5053767;28;20190;-67
2022/02/09 17:21:58;;;;;;;15.63;8.30;;;6.50;99.90;;;;;;5054276;28;20409;-67
2022/02/09 17:24:25;;;;;;;23.02;8.55;;;6.50;99.90;;;;;;5053344;28;20132;-67
2022/02/09 17:26:53;;;;;;;17.23;9.40;;;6.40;99.90;;;;;;5053434;28;20057;-67
2022/02/09 17:29:24;;;;;;;17.58;8.25;;;6.40;99.90;;;;;;5053335;28;20049;-67
2022/02/09 17:31:57;;;;;;;15.20;7.72;;;6.40;99.90;;;;;;5053784;28;20057;-67
2022/02/09 17:34:47;;;;;;;18.30;8.70;;;6.20;99.90;;;;;;5053263;28;20057;-66
2022/02/09 17:37:49;;;;;;;11.75;6.70;;;6.20;99.90;;;;;;5053432;28;20060;-66
2022/02/09 17:54:06;;;;;;;20.33;10.52;;;5.90;99.90;;;;;;5051984;28;20067;-67
2022/02/09 17:56:45;;;;;;;21.95;10.45;;;5.80;99.90;;;;;;5050141;28;20198;-67
2022/02/09 17:59:19;;;;;;;21.65;12.65;;;5.80;99.90;;;;;;5049847;28;20140;-67
2022/02/09 18:01:46;;;;;;;26.08;13.32;;;5.70;99.90;;;;;;5049979;28;20060;-67
2022/02/09 18:04:13;;;;;;;25.65;13.45;;;5.70;99.90;;;;;;5049555;28;20596;-66
2022/02/09 18:06:45;;;;;;;28.25;14.38;;;5.70;99.90;;;;;;5049438;28;20433;-67
2022/02/09 18:09:21;;;;;;;23.10;11.80;;;5.60;99.90;;;;;;5049764;28;20240;-67
2022/02/09 18:12:00;;;;;;;19.75;12.05;;;5.60;99.90;;;;;;5052408;28;20049;-67
2022/02/09 18:25:56;;;;;;;24.95;12.32;;;5.20;99.90;;;;;;5052229;28;20562;-67
2022/02/09 18:31:14;;;;;;;23.92;12.13;;;5.20;99.90;;;;;;5041325;28;20060;-67
2022/02/09 18:34:08;;;;;;;21.48;10.95;;;5.10;99.90;;;;;;5052264;28;20088;-67
2022/02/09 18:44:56;;;;;;;21.45;9.98;;;4.80;99.90;;;;;;5051918;28;20048;-66
2022/02/09 19:03:56;;;;;;;27.60;14.98;;;4.60;99.90;;;;;;5052037;28;20056;-67
2022/02/09 19:06:28;;;;;;;29.88;15.02;;;4.60;99.90;;;;;;5051357;28;20147;-67
2022/02/09 19:14:31;;;;;;;32.60;17.25;;;4.60;99.90;;;;;;5051746;28;20498;-67
2022/02/09 19:17:03;;;;;;;37.47;18.30;;;4.60;99.90;;;;;;5051563;28;20445;-66
2022/02/09 19:47:12;;;;;;;30.00;16.65;;;4.90;99.90;;;;;;5051607;28;20052;-66
2022/02/09 19:50:06;;;;;;;36.08;18.80;;;4.90;99.90;;;;;;5051418;28;20045;-67
2022/02/09 19:52:47;;;;;;;40.35;20.15;;;5.10;99.90;;;;;;5051717;28;20111;-67
2022/02/09 19:55:31;;;;;;;46.30;22.00;;;5.10;99.90;;;;;;5055035;28;20144;-67
2022/02/09 19:58:00;;;;;;;48.75;23.27;;;5.10;99.90;;;;;;5055148;28;20127;-67
2022/02/09 20:00:29;;;;;;;47.28;23.08;;;5.10;99.90;;;;;;5055092;28;20056;-67
2022/02/09 20:02:57;;;;;;;49.13;24.73;;;5.00;99.90;;;;;;5054912;28;20067;-67
2022/02/09 20:05:26;;;;;;;43.90;21.50;;;5.00;99.90;;;;;;5054751;28;20132;-67
2022/02/09 20:07:54;;;;;;;36.35;19.48;;;4.90;99.90;;;;;;5054479;28;20057;-67
2022/02/09 20:10:22;;;;;;;42.30;21.17;;;4.80;99.90;;;;;;5054485;28;20057;-67
2022/02/09 20:12:50;;;;;;;33.28;17.77;;;4.70;99.90;;;;;;5054417;28;20052;-67
2022/02/09 20:15:17;;;;;;;30.00;14.40;;;4.70;99.90;;;;;;5053866;28;20140;-67
2022/02/09 20:17:47;;;;;;;39.03;16.35;;;4.60;99.90;;;;;;5054795;28;20061;-67
2022/02/09 20:20:22;;;;;;;28.08;15.05;;;4.60;99.90;;;;;;5054309;28;20126;-67
2022/02/09 20:22:51;;;;;;;30.60;14.18;;;4.50;99.90;;;;;;5054385;28;20049;-67
2022/02/09 20:25:20;;;;;;;26.30;13.25;;;4.50;99.90;;;;;;5053666;28;20056;-67
2022/02/09 20:27:49;;;;;;;24.30;13.02;;;4.40;99.90;;;;;;5054287;28;20052;-67
2022/02/09 20:30:19;;;;;;;28.63;13.50;;;4.30;99.90;;;;;;5054047;28;20093;-67
2022/02/09 20:32:50;;;;;;;25.05;12.32;;;4.20;99.90;;;;;;5054689;28;20060;-67
2022/02/09 20:35:20;;;;;;;22.10;12.00;;;4.20;99.90;;;;;;5054181;28;20053;-66
2022/02/09 20:37:50;;;;;;;22.60;11.93;;;4.20;99.90;;;;;;5054793;28;20056;-67
2022/02/09 20:40:21;;;;;;;23.73;12.43;;;4.20;99.90;;;;;;5053881;28;20507;-67
2022/02/09 20:42:54;;;;;;;29.17;16.23;;;4.10;99.90;;;;;;5054389;28;20057;-66
2022/02/09 20:45:27;;;;;;;34.45;15.95;;;4.00;99.90;;;;;;5053688;28;20539;-67
2022/02/09 20:47:59;;;;;;;31.85;16.85;;;3.90;99.90;;;;;;5054182;28;20056;-67
2022/02/09 20:50:29;;;;;;;38.25;18.33;;;3.90;99.90;;;;;;5053645;28;20469;-67
2022/02/09 20:52:56;;;;;;;30.80;17.20;;;3.90;99.90;;;;;;5053816;28;20064;-67
2022/02/09 20:55:23;;;;;;;29.00;16.80;;;3.80;99.90;;;;;;5053630;28;20589;-67
2022/02/09 20:57:51;;;;;;;34.30;17.30;;;3.80;99.90;;;;;;5053877;28;20405;-66
2022/02/09 21:00:26;;;;;;;38.55;18.85;;;3.80;99.90;;;;;;5053625;28;20143;-67
2022/02/09 21:03:00;;;;;;;38.47;18.80;;;3.70;99.90;;;;;;5053793;28;20065;-67
2022/02/09 21:05:39;;;;;;;35.75;17.17;;;3.70;99.90;;;;;;5052621;28;20127;-67
2022/02/09 21:08:26;;;;;;;39.55;16.15;;;3.70;99.90;;;;;;5054099;28;20433;-67
2022/02/09 21:11:01;;;;;;;31.27;16.77;;;3.60;99.90;;;;;;5053417;28;20056;-66
2022/02/09 21:13:37;;;;;;;34.87;15.77;;;3.60;99.90;;;;;;5053570;28;20056;-67
2022/02/09 21:16:17;;;;;;;29.98;15.75;;;3.50;99.90;;;;;;5053093;28;20049;-67
2022/02/09 21:25:05;;;;;;;37.50;17.90;;;3.30;99.90;;;;;;5053386;28;20095;-67
2022/02/09 21:49:08;;;;;;;28.23;14.27;;;2.90;99.90;;;;;;5051478;28;20501;-67
2022/02/09 21:55:26;;;;;;;24.88;14.32;;;2.70;99.90;;;;;;5048282;28;20409;-67
2022/02/09 21:58:00;;;;;;;30.97;17.20;;;2.70;99.90;;;;;;5052948;28;20083;-66
2022/02/09 22:00:46;;;;;;;32.23;16.63;;;2.70;99.90;;;;;;5052632;28;20044;-66
2022/02/09 22:20:08;;;;;;;32.60;16.77;;;2.40;99.90;;;;;;5051143;28;20124;-67
2022/02/09 22:22:41;;;;;;;29.23;14.33;;;2.40;99.90;;;;;;5051869;28;20413;-66
2022/02/09 22:27:57;;;;;;;31.57;15.63;;;2.40;99.90;;;;;;5051940;28;20170;-66
2022/02/09 22:55:21;;;;;;;32.73;16.17;;;2.10;99.90;;;;;;5051370;28;20083;-67
2022/02/09 22:57:54;;;;;;;31.03;17.13;;;2.10;99.90;;;;;;5051753;28;20096;-67
2022/02/09 23:00:47;;;;;;;34.63;17.67;;;2.10;99.90;;;;;;5051866;28;20055;-66
2022/02/09 23:03:20;;;;;;;32.63;17.53;;;2.20;99.90;;;;;;5051433;28;20580;-66